Terminal Aerodrome Forecast
Issued by NWS

Home | Current Version | Previous Version | Text Only | Print | Product List | Glossary On
Versions: 1 2 3 4 5 6 7 8 9 10 11 12 13 14 15 16 17 18 19 20 21 22 23 24 25 26 27 28
000
FTUS44 KMAF 011727
TAFHOB
TAF
KHOB 011727Z 0118/0218 07008KT P6SM SCT090 SCT150
     FM012300 11010KT P6SM SCT100 BKN150
      TEMPO 0200/0204 VRB15G30KT 5SM TSRA FEW025 BKN070CB=

USA.gov is the U.S. government's official web portal to all federal, state and local government web resources and services.